Pagrindinis puslapis
METAR-TAF:

METAR-TAF

Oro uostai :

Asaluyeh, Iranas

platuma: 27-22-46N, ilguma: 52-44-15E, Aukštis: 8 m

Dabartinis oras

Ataskaita buvo paskelbta 54 minutes, ne 12:00 UTC
Vėjas 10 kt iš Šiaurės Vakarų
Temperatūra 30°C
Drėgmė 35%
Slėgis 1007 hPa
Matomumas 10 km arba daugiau
nėra debesų žemiau 1500 m ir nėra kamuolinių lietaus debesų

METAR: OIBP 201200Z 31010KT CAVOK 30/13 Q1007 A2974

Laikas: 17:24 (12:54 UTC)

Prognozė

Ataskaita buvo paskelbta 1 valandą ir 24 minutes, ne 11:30 UTC
Prognozė galioja nuo 20 metu 12 UTC su 20 metu 21 UTC
Vėjas 8 kt iš Vakarų/Šiaurės Vakarų
Matomumas: 8000 m
Laikinai
nuo 20 metu 12 UTC su 20 metu 16 UTC
Vėjas 14 kt iš Vakarų/Šiaurės Vakarų

TAF: OIBP 201130Z 2012/2021 30008KT 8000 NSC TEMPO 2012/2016 30014KT

Orai ataskaitas ir orų prognozės (METAR, TAF).

turimą stotys yra geltonos ir raudonos taškus žemėlapyje.

Perkelti pele per norėdami pamatyti stoties vardą.

Tada spustelėkite, norėdami matyti oro stebėjimo ir prognozės.

Norėdami pakeisti žemėlapį: spustelėkite ant žalios mygtukų su juodo kryžiaus žemyn,; žalią mygtuką su brūkšneliu, jei norite nutolinti; arba žalių rodyklių gretimoms žemėlapius.


METAR-TAF: